Time;durP1;ratioP1;P1;durP2;ratioP2;P2;SDS_P1;SDS_P2;PMS_P1;PMS_P2;Temp;Humidity;BMP_temperature;BMP_pressure;BME280_temperature;BME280_humidity;BME280_pressure;Samples;Min_cycle;Max_cycle;Signal;HPM_P1;HPM_P2
2023/12/14 00:00:08;;;;;;;1.50;1.40;;;;;;;4.14;68.66;100531.28;5016429;28;97360;-76
2023/12/14 00:02:33;;;;;;;1.50;1.40;;;;;;;4.13;68.76;100539.94;5016111;28;98350;-76
2023/12/14 00:04:59;;;;;;;1.50;1.40;;;;;;;4.14;68.65;100533.25;5014689;28;97329;-76
2023/12/14 00:07:24;;;;;;;2.00;1.63;;;;;;;4.16;68.88;100539.03;5014131;28;97294;-76
2023/12/14 00:09:49;;;;;;;1.90;1.80;;;;;;;4.18;68.44;100559.22;5012521;28;101458;-76
2023/12/14 00:12:15;;;;;;;1.50;1.40;;;;;;;4.17;68.44;100548.72;5016862;28;97544;-76
2023/12/14 00:14:40;;;;;;;1.67;1.57;;;;;;;4.17;68.28;100554.19;5015579;28;97271;-76
2023/12/14 00:17:05;;;;;;;2.20;1.40;;;;;;;4.15;68.43;100553.91;4999075;28;97556;-76
2023/12/14 00:19:31;;;;;;;1.50;1.40;;;;;;;4.16;69.10;100558.94;5013775;28;97271;-76
2023/12/14 00:21:56;;;;;;;1.60;1.50;;;;;;;4.21;68.45;100557.53;5013417;28;109094;-76
2023/12/14 00:24:21;;;;;;;1.27;1.17;;;;;;;4.15;68.45;100551.19;5014567;28;102016;-76
2023/12/14 00:26:46;;;;;;;1.53;1.43;;;;;;;4.17;68.42;100584.31;5014813;28;97331;-76
2023/12/14 00:29:12;;;;;;;2.60;1.33;;;;;;;4.20;68.33;100573.19;5015243;28;98633;-76
2023/12/14 00:31:37;;;;;;;1.13;1.10;;;;;;;4.22;68.59;100578.94;5008807;28;104543;-76
2023/12/14 00:34:02;;;;;;;1.80;1.70;;;;;;;4.25;68.38;100593.69;5013106;28;97524;-76
2023/12/14 00:36:28;;;;;;;2.10;1.90;;;;;;;4.23;68.32;100585.19;4996581;28;97181;-75
2023/12/14 00:38:55;;;;;;;1.67;1.57;;;;;;;4.23;68.29;100596.91;5016131;28;97425;-76
2023/12/14 00:41:20;;;;;;;2.03;1.90;;;;;;;4.25;68.29;100599.16;5014056;28;97744;-76
2023/12/14 00:43:46;;;;;;;2.73;2.17;;;;;;;4.22;68.47;100597.34;5013909;28;96835;-75
2023/12/14 00:46:11;;;;;;;2.10;2.00;;;;;;;4.25;68.41;100607.38;5013036;28;96767;-76
2023/12/14 00:48:36;;;;;;;1.80;1.70;;;;;;;4.27;68.21;100622.09;5010838;28;98339;-76
2023/12/14 00:51:02;;;;;;;2.50;2.30;;;;;;;4.26;68.32;100631.53;4997053;28;100528;-76
2023/12/14 00:53:27;;;;;;;2.37;2.17;;;;;;;4.22;68.17;100638.41;5012309;28;96694;-76
2023/12/14 00:55:53;;;;;;;2.40;2.20;;;;;;;4.22;68.36;100639.19;5013135;28;97227;-76
2023/12/14 00:58:18;;;;;;;2.57;2.37;;;;;;;4.23;68.41;100656.38;5015526;28;98116;-76
2023/12/14 01:00:43;;;;;;;2.70;2.50;;;;;;;4.20;68.46;100638.91;4994986;28;98893;-76
2023/12/14 01:03:09;;;;;;;2.60;2.40;;;;;;;4.16;68.33;100649.28;5010839;28;109028;-76
2023/12/14 01:05:34;;;;;;;3.70;2.63;;;;;;;4.11;68.18;100647.22;5010572;28;97165;-76
2023/12/14 01:07:59;;;;;;;2.83;2.63;;;;;;;4.05;68.58;100654.56;5015271;28;114369;-76
2023/12/14 01:10:25;;;;;;;3.30;3.00;;;;;;;4.03;68.56;100648.81;4992464;28;100010;-76
2023/12/14 01:12:50;;;;;;;3.43;3.13;;;;;;;4.05;68.57;100655.34;5013493;28;97132;-76
2023/12/14 01:15:15;;;;;;;5.07;3.30;;;;;;;4.02;68.28;100655.50;5015254;28;97378;-76
2023/12/14 01:17:41;;;;;;;3.20;2.90;;;;;;;3.93;68.39;100661.81;5013212;28;97770;-76
2023/12/14 01:20:07;;;;;;;3.23;2.97;;;;;;;3.99;68.67;100673.63;5012272;28;97686;-76
2023/12/14 01:22:33;;;;;;;2.87;2.67;;;;;;;3.97;68.26;100675.31;5012981;28;97245;-76
2023/12/14 01:24:59;;;;;;;3.07;2.77;;;;;;;3.94;68.69;100679.00;5013824;28;97506;-75
2023/12/14 01:27:24;;;;;;;6.50;3.03;;;;;;;3.93;68.88;100680.97;5013173;28;97656;-76
2023/12/14 01:29:49;;;;;;;2.27;2.17;;;;;;;3.94;68.78;100679.75;5004183;28;98475;-75
2023/12/14 01:32:15;;;;;;;2.37;2.23;;;;;;;3.97;68.42;100692.50;5011511;27;104922;-76
2023/12/14 01:34:40;;;;;;;2.93;2.63;;;;;;;4.00;68.75;100688.81;5013722;27;97369;-76
2023/12/14 01:37:06;;;;;;;2.90;2.57;;;;;;;3.98;68.54;100691.28;5008752;28;117090;-76
2023/12/14 01:39:32;;;;;;;3.40;3.10;;;;;;;3.97;68.17;100692.50;5014702;28;98766;-76
2023/12/14 01:41:57;;;;;;;4.90;2.70;;;;;;;3.95;68.56;100691.44;5016751;28;96814;-76
2023/12/14 01:44:22;;;;;;;2.60;2.37;;;;;;;3.94;68.23;100709.09;5017257;28;100065;-75
2023/12/14 01:46:48;;;;;;;2.47;2.27;;;;;;;3.95;68.48;100714.09;5016253;28;97421;-76
2023/12/14 01:49:13;;;;;;;2.97;2.33;;;;;;;3.92;68.42;100706.84;5018669;28;98075;-76
2023/12/14 01:51:38;;;;;;;2.87;2.60;;;;;;;3.91;68.56;100715.50;5019819;28;101156;-76
2023/12/14 01:54:04;;;;;;;2.17;1.90;;;;;;;3.93;68.35;100718.53;5018846;28;97136;-76
2023/12/14 01:56:29;;;;;;;3.17;2.13;;;;;;;3.95;68.61;100724.28;5017140;28;107412;-76
2023/12/14 01:58:54;;;;;;;5.63;2.30;;;;;;;3.88;68.28;100724.66;5014886;28;97189;-77
2023/12/14 02:01:46;;;;;;;3.00;2.40;;;;;;;3.86;68.47;100727.84;4995703;28;97545;-76
2023/12/14 02:04:13;;;;;;;2.97;2.70;;;;;;;3.91;68.55;100726.44;4989056;28;96973;-76
2023/12/14 02:06:39;;;;;;;2.50;2.17;;;;;;;3.89;68.54;100742.59;5016232;28;97297;-76
2023/12/14 02:09:04;;;;;;;3.90;2.40;;;;;;;3.84;68.37;100735.78;5001935;28;100295;-75
2023/12/14 02:11:29;;;;;;;2.53;2.33;;;;;;;3.86;68.51;100744.28;5016856;28;102332;-76
2023/12/14 02:13:55;;;;;;;2.40;2.23;;;;;;;3.86;68.45;100743.53;5019178;28;97127;-75
2023/12/14 02:16:20;;;;;;;2.17;2.03;;;;;;;3.86;68.31;100749.75;5017284;28;97233;-76
2023/12/14 02:18:46;;;;;;;2.70;2.00;;;;;;;3.82;68.16;100749.19;4997108;28;99963;-76
2023/12/14 02:21:11;;;;;;;2.30;2.20;;;;;;;3.84;68.50;100746.72;5015045;28;96726;-76
2023/12/14 02:23:46;;;;;;;2.07;1.87;;;;;;;3.87;68.40;100751.28;5016963;28;108753;-76
2023/12/14 02:26:12;;;;;;;2.30;2.10;;;;;;;3.86;68.55;100759.97;5018076;28;96858;-75
2023/12/14 02:28:37;;;;;;;4.53;2.20;;;;;;;3.83;68.51;100745.22;5018064;28;98388;-76
2023/12/14 02:31:03;;;;;;;2.77;2.30;;;;;;;3.77;68.51;100746.34;5016294;28;112407;-76
2023/12/14 02:33:28;;;;;;;2.50;2.40;;;;;;;3.77;68.46;100749.81;5014275;28;97190;-76
2023/12/14 02:35:54;;;;;;;2.83;2.40;;;;;;;3.78;68.53;100759.56;5018087;28;97607;-76
2023/12/14 02:38:19;;;;;;;2.43;2.20;;;;;;;3.79;68.33;100755.59;5017174;28;98280;-76
2023/12/14 02:40:45;;;;;;;2.93;2.47;;;;;;;3.81;68.23;100764.09;5018045;28;97389;-76
2023/12/14 02:43:10;;;;;;;2.97;2.70;;;;;;;3.74;68.34;100775.38;5013957;28;96999;-76
2023/12/14 02:45:35;;;;;;;3.50;2.53;;;;;;;3.72;68.65;100775.09;5017778;28;97426;-75
2023/12/14 02:48:01;;;;;;;3.20;2.87;;;;;;;3.71;68.45;100779.03;5013886;28;110262;-76
2023/12/14 02:50:26;;;;;;;3.20;2.90;;;;;;;3.70;68.62;100776.78;5014683;28;97129;-75
2023/12/14 02:52:51;;;;;;;4.00;2.63;;;;;;;3.69;68.39;100778.75;4998340;28;101454;-76
2023/12/14 02:55:17;;;;;;;3.13;2.63;;;;;;;3.67;68.54;100778.47;5014765;28;99245;-75
2023/12/14 02:57:42;;;;;;;2.90;2.50;;;;;;;3.68;68.43;100781.97;5017394;28;113305;-76
2023/12/14 03:00:08;;;;;;;3.23;2.50;;;;;;;3.70;68.77;100780.28;4998845;28;96823;-75
2023/12/14 03:02:34;;;;;;;4.90;2.53;;;;;;;3.71;68.40;100787.25;5017491;28;97512;-75
2023/12/14 03:04:59;;;;;;;2.70;2.50;;;;;;;3.69;68.33;100789.69;5013223;28;98788;-75
2023/12/14 03:07:26;;;;;;;2.93;2.73;;;;;;;3.72;68.55;100797.00;5016750;28;97236;-76
2023/12/14 03:09:51;;;;;;;2.90;2.53;;;;;;;3.70;68.20;100798.66;4996288;28;97053;-75
2023/12/14 03:12:17;;;;;;;3.37;2.73;;;;;;;3.72;68.18;100807.16;5014106;28;97660;-76
2023/12/14 03:14:42;;;;;;;4.10;2.97;;;;;;;3.66;68.26;100807.06;5000086;28;99835;-75
2023/12/14 03:17:12;;;;;;;3.50;2.40;;;;;;;3.69;68.51;100797.91;5015239;28;97598;-75
2023/12/14 03:19:39;;;;;;;3.20;2.60;;;;;;;3.73;68.53;100814.91;4996798;28;97370;-75
2023/12/14 03:22:05;;;;;;;5.23;3.00;;;;;;;3.77;68.41;100795.59;5015219;28;96722;-75
2023/12/14 03:24:30;;;;;;;3.40;3.00;;;;;;;3.82;68.26;100794.94;5014961;28;97801;-76
2023/12/14 03:26:55;;;;;;;3.00;2.13;;;;;;;3.83;68.30;100786.28;5016458;28;105993;-76
2023/12/14 03:29:21;;;;;;;2.73;2.53;;;;;;;3.81;68.07;100804.38;5013797;28;97364;-75
2023/12/14 03:31:46;;;;;;;3.37;3.07;;;;;;;3.83;68.30;100793.72;5001091;28;98498;-76
2023/12/14 03:34:12;;;;;;;6.63;2.97;;;;;;;3.88;68.51;100812.25;5013957;28;97399;-76
2023/12/14 03:36:37;;;;;;;3.17;2.93;;;;;;;3.92;68.04;100807.34;4997748;28;100056;-75
2023/12/14 03:39:03;;;;;;;3.50;2.73;;;;;;;3.94;68.14;100813.13;5011550;28;97345;-76
2023/12/14 03:41:28;;;;;;;2.80;2.57;;;;;;;3.92;68.14;100826.50;5015286;28;96894;-75
2023/12/14 03:43:53;;;;;;;3.13;2.80;;;;;;;3.89;68.00;100839.16;5015726;28;102104;-76
2023/12/14 03:46:19;;;;;;;2.70;2.47;;;;;;;3.86;67.99;100844.81;5014860;28;97379;-76
2023/12/14 03:48:44;;;;;;;5.00;3.20;;;;;;;3.86;68.16;100831.84;5013411;28;97124;-75
2023/12/14 03:51:10;;;;;;;3.03;2.73;;;;;;;3.89;68.06;100847.34;5013674;28;97306;-75
2023/12/14 03:53:35;;;;;;;7.03;3.50;;;;;;;3.91;67.92;100844.16;5013948;28;100574;-76
2023/12/14 03:56:00;;;;;;;3.40;3.10;;;;;;;3.91;67.68;100850.38;4995014;28;103109;-75
2023/12/14 03:58:26;;;;;;;3.60;3.30;;;;;;;3.88;67.93;100856.78;5017398;28;96770;-75
2023/12/14 04:00:52;;;;;;;3.80;3.40;;;;;;;3.84;68.22;100869.88;5015691;28;97024;-75
2023/12/14 04:03:17;;;;;;;5.17;3.90;;;;;;;3.85;68.14;100874.13;5014675;28;96991;-75
2023/12/14 04:05:44;;;;;;;5.20;3.60;;;;;;;3.84;67.92;100875.34;4997410;28;98601;-75
2023/12/14 04:08:09;;;;;;;4.47;3.77;;;;;;;3.86;68.22;100870.16;4996656;28;97303;-75
2023/12/14 04:10:34;;;;;;;3.87;3.47;;;;;;;3.84;67.85;100880.81;5015202;28;97408;-75
2023/12/14 04:13:00;;;;;;;5.87;4.37;;;;;;;3.81;67.93;100881.00;5015747;28;97871;-76
2023/12/14 04:15:25;;;;;;;5.53;3.40;;;;;;;3.82;68.39;100879.75;5017020;28;112231;-75
2023/12/14 04:17:53;;;;;;;5.53;3.27;;;;;;;3.86;67.87;100880.38;5014035;28;97662;-75
2023/12/14 04:20:19;;;;;;;3.97;3.60;;;;;;;3.88;68.10;100878.66;5015827;28;97355;-75
2023/12/14 04:22:45;;;;;;;3.50;3.20;;;;;;;3.88;68.03;100889.63;5014616;28;98397;-75
2023/12/14 04:25:10;;;;;;;3.83;2.97;;;;;;;3.91;67.95;100872.28;5013654;28;97085;-75
2023/12/14 04:27:35;;;;;;;3.73;3.43;;;;;;;3.91;67.70;100882.47;4996319;28;96692;-76
2023/12/14 04:30:01;;;;;;;3.97;3.50;;;;;;;3.87;68.04;100884.63;4992682;28;97379;-76
2023/12/14 04:32:27;;;;;;;3.93;3.40;;;;;;;3.84;68.24;100891.78;5012850;28;97942;-75
2023/12/14 04:34:52;;;;;;;4.73;3.43;;;;;;;3.85;68.10;100901.50;5014374;28;97738;-75
2023/12/14 04:37:17;;;;;;;4.03;3.03;;;;;;;3.83;68.17;100906.69;5013681;27;97142;-76
2023/12/14 04:39:43;;;;;;;3.20;2.90;;;;;;;3.85;68.19;100906.97;4998581;28;97436;-76
2023/12/14 04:42:08;;;;;;;9.83;3.63;;;;;;;3.87;67.89;100917.47;5014814;28;97660;-75
2023/12/14 04:44:37;;;;;;;3.33;3.03;;;;;;;3.84;68.22;100902.72;5014475;28;97236;-72
2023/12/14 04:47:02;;;;;;;3.10;2.77;;;;;;;3.84;68.19;100921.88;5014757;28;97289;-75
2023/12/14 04:49:27;;;;;;;5.30;3.13;;;;;;;3.86;68.25;100926.91;4980731;27;99052;-76
2023/12/14 04:51:53;;;;;;;3.13;2.93;;;;;;;3.89;68.23;100932.19;4991781;27;111668;-75
2023/12/14 04:54:18;;;;;;;6.23;3.57;;;;;;;3.89;68.13;100920.50;5009911;28;107385;-75
2023/12/14 04:56:46;;;;;;;3.07;2.80;;;;;;;3.90;67.89;100925.47;5012048;28;97044;-75
2023/12/14 04:59:11;;;;;;;5.63;2.83;;;;;;;3.88;68.22;100938.88;5014873;28;98222;-75
2023/12/14 05:01:37;;;;;;;4.17;2.50;;;;;;;3.88;67.89;100933.41;5011747;28;98560;-75
2023/12/14 05:04:02;;;;;;;4.90;3.07;;;;;;;3.90;68.00;100952.13;5014042;28;107695;-75
2023/12/14 05:06:28;;;;;;;3.63;2.80;;;;;;;3.87;67.84;100950.31;5012741;27;97613;-75
2023/12/14 05:08:53;;;;;;;3.00;2.70;;;;;;;3.88;68.26;100971.00;5008978;28;97256;-76
2023/12/14 05:11:19;;;;;;;2.97;2.63;;;;;;;3.87;68.20;100953.81;4998803;28;99242;-75
2023/12/14 05:13:44;;;;;;;4.00;2.93;;;;;;;3.94;67.99;100964.41;5004129;28;99357;-75
2023/12/14 05:16:16;;;;;;;2.50;2.30;;;;;;;3.93;67.67;100967.59;5001728;28;96767;-75
2023/12/14 05:18:41;;;;;;;2.90;2.40;;;;;;;3.96;67.73;100967.44;5021464;28;97146;-75
2023/12/14 05:21:07;;;;;;;2.83;1.97;;;;;;;3.97;68.06;100966.22;5022035;28;97830;-76
2023/12/14 05:23:33;;;;;;;2.20;2.10;;;;;;;3.98;68.04;100966.97;5019146;28;96854;-75
2023/12/14 05:25:58;;;;;;;3.17;2.40;;;;;;;3.99;67.74;100963.78;5004058;28;97153;-75
2023/12/14 05:28:23;;;;;;;3.40;2.63;;;;;;;4.03;67.64;100966.34;5018127;28;97090;-75
2023/12/14 05:30:49;;;;;;;3.37;1.87;;;;;;;4.02;67.70;100971.06;5015209;28;97473;-76
2023/12/14 05:33:14;;;;;;;3.87;2.30;;;;;;;3.94;67.79;100977.34;5017947;28;104158;-75
2023/12/14 05:35:39;;;;;;;2.60;2.10;;;;;;;3.95;67.83;100995.25;5018293;28;97603;-75
2023/12/14 05:38:05;;;;;;;1.90;1.80;;;;;;;3.96;68.03;100994.81;5018225;28;97303;-76
2023/12/14 05:40:31;;;;;;;1.97;1.80;;;;;;;4.00;67.87;101005.59;5001286;28;101797;-76
2023/12/14 05:42:56;;;;;;;5.33;2.17;;;;;;;4.02;67.91;101019.56;5018409;28;97698;-75
2023/12/14 05:45:22;;;;;;;2.20;2.10;;;;;;;4.03;67.87;101018.38;5018722;28;106315;-75
2023/12/14 05:47:47;;;;;;;2.20;2.10;;;;;;;4.02;67.70;101020.34;5017636;28;97478;-75
2023/12/14 05:50:12;;;;;;;2.63;2.43;;;;;;;4.03;67.91;101023.84;5017707;28;100792;-76
2023/12/14 05:52:38;;;;;;;2.60;2.40;;;;;;;4.02;67.90;101027.78;5020829;28;97100;-75
2023/12/14 05:55:04;;;;;;;2.03;1.83;;;;;;;4.01;67.75;101031.75;5017422;28;97092;-75
2023/12/14 05:57:29;;;;;;;7.20;2.33;;;;;;;4.03;67.57;101038.28;4999126;28;96785;-76
2023/12/14 05:59:55;;;;;;;3.20;2.27;;;;;;;4.04;67.82;101039.03;5003232;28;113176;-76
2023/12/14 06:02:20;;;;;;;2.40;2.20;;;;;;;4.08;68.27;101034.91;5016618;28;97011;-75
2023/12/14 06:04:45;;;;;;;5.37;2.50;;;;;;;4.11;67.85;101033.25;5019518;27;97201;-76
2023/12/14 06:07:11;;;;;;;4.40;2.27;;;;;;;4.13;67.61;101038.25;5004081;28;97283;-76
2023/12/14 06:09:36;;;;;;;2.00;1.87;;;;;;;4.15;67.71;101038.53;5016388;28;97352;-75
2023/12/14 06:12:03;;;;;;;2.70;2.13;;;;;;;4.10;67.65;101048.13;5018747;28;97316;-76
2023/12/14 06:14:29;;;;;;;1.70;1.60;;;;;;;4.09;67.50;101046.63;5016632;28;97254;-76
2023/12/14 06:16:54;;;;;;;1.87;1.77;;;;;;;4.02;67.63;101044.97;5014652;28;97599;-76
2023/12/14 06:19:20;;;;;;;4.93;2.17;;;;;;;4.01;67.90;101051.66;5019077;28;97593;-76
2023/12/14 06:21:45;;;;;;;2.03;1.93;;;;;;;4.01;67.54;101061.88;5015035;27;97209;-76
2023/12/14 06:24:10;;;;;;;1.67;1.57;;;;;;;3.94;67.75;101060.22;5011224;28;106996;-75
2023/12/14 06:26:41;;;;;;;1.70;1.60;;;;;;;3.93;67.91;101066.91;5012934;28;100682;-75
2023/12/14 06:29:06;;;;;;;2.40;2.20;;;;;;;3.94;67.72;101065.69;5015986;28;99519;-75
2023/12/14 06:31:32;;;;;;;1.60;1.50;;;;;;;3.94;67.88;101073.91;5014607;28;104266;-76
2023/12/14 06:33:57;;;;;;;1.73;1.63;;;;;;;3.95;67.94;101066.44;5013243;28;106706;-76
2023/12/14 06:36:26;;;;;;;1.90;1.80;;;;;;;3.97;67.78;101077.69;5005334;28;97227;-75
2023/12/14 06:38:52;;;;;;;2.03;1.87;;;;;;;3.96;68.03;101082.41;5011461;28;97332;-76
2023/12/14 06:41:21;;;;;;;1.30;1.30;;;;;;;3.96;67.86;101076.94;5013892;28;97819;-75
2023/12/14 06:43:46;;;;;;;1.43;1.33;;;;;;;3.92;67.74;101092.78;5016022;28;96852;-76
2023/12/14 06:46:12;;;;;;;1.47;1.37;;;;;;;3.93;67.94;101091.53;5001685;28;102288;-76
2023/12/14 06:48:37;;;;;;;1.30;1.20;;;;;;;3.95;67.86;101097.31;5012834;28;99350;-75
2023/12/14 06:51:02;;;;;;;1.30;1.20;;;;;;;3.96;67.58;101093.38;4994532;28;98915;-75
2023/12/14 06:53:28;;;;;;;1.37;1.27;;;;;;;4.02;67.82;101093.50;4994034;28;97120;-75
2023/12/14 06:55:53;;;;;;;1.77;1.33;;;;;;;4.05;67.61;101100.81;5015340;28;97200;-76
2023/12/14 06:58:18;;;;;;;1.70;1.60;;;;;;;4.06;67.44;101110.50;5012828;28;110564;-76
2023/12/14 07:00:44;;;;;;;1.50;1.40;;;;;;;4.04;67.59;101110.22;4998508;28;110247;-75
2023/12/14 07:03:09;;;;;;;1.20;1.10;;;;;;;4.03;67.73;101125.88;4993857;28;98135;-75
2023/12/14 07:05:34;;;;;;;1.50;1.40;;;;;;;4.03;67.57;101122.41;5016848;28;108818;-76
2023/12/14 07:07:59;;;;;;;1.10;1.00;;;;;;;4.05;67.45;101130.91;5009838;28;113685;-75
2023/12/14 07:10:25;;;;;;;1.53;1.17;;;;;;;4.03;67.81;101133.34;5013118;28;97231;-75
2023/12/14 07:12:50;;;;;;;1.57;1.10;;;;;;;4.03;68.05;101136.09;5016749;28;97461;-76
2023/12/14 07:15:15;;;;;;;1.30;1.13;;;;;;;4.08;67.62;101143.66;5018249;28;96913;-76
2023/12/14 07:17:41;;;;;;;1.40;1.20;;;;;;;4.09;67.94;101136.97;5012310;28;97527;-75
2023/12/14 07:20:07;;;;;;;2.30;0.93;;;;;;;4.09;67.70;101147.94;5016163;28;97030;-76
2023/12/14 07:22:32;;;;;;;2.07;1.40;;;;;;;4.10;67.71;101132.28;5015870;28;97284;-76
2023/12/14 07:24:57;;;;;;;1.10;1.10;;;;;;;4.13;67.94;101148.53;5014257;28;103648;-76
2023/12/14 07:27:23;;;;;;;1.97;1.10;;;;;;;4.14;67.77;101152.81;5015422;28;107724;-76
2023/12/14 07:29:48;;;;;;;1.50;1.40;;;;;;;4.18;67.63;101163.59;5014498;28;96633;-75
2023/12/14 07:32:14;;;;;;;2.60;1.23;;;;;;;4.20;67.48;101172.09;5015202;28;97593;-75
2023/12/14 07:34:39;;;;;;;3.67;1.10;;;;;;;4.19;67.58;101181.56;5014408;28;97747;-75
2023/12/14 07:37:05;;;;;;;1.23;1.10;;;;;;;4.20;67.75;101199.50;5012590;28;98048;-75
2023/12/14 07:39:31;;;;;;;1.63;1.33;;;;;;;4.22;67.59;101194.31;5012064;28;97653;-76
2023/12/14 07:41:56;;;;;;;1.00;0.80;;;;;;;4.22;67.75;101214.25;5014858;28;97044;-75
2023/12/14 07:44:22;;;;;;;1.37;1.27;;;;;;;4.20;67.73;101205.72;5000023;28;96947;-75
2023/12/14 07:46:48;;;;;;;1.00;1.00;;;;;;;4.19;67.67;101214.41;4999391;28;100114;-75
2023/12/14 07:49:13;;;;;;;2.27;0.83;;;;;;;4.14;67.63;101213.03;5009839;28;97067;-76
2023/12/14 07:51:38;;;;;;;2.00;1.10;;;;;;;4.13;67.72;101218.97;5012352;28;98001;-76
2023/12/14 07:54:04;;;;;;;1.13;1.03;;;;;;;4.12;67.67;101225.66;5010368;28;97624;-76
2023/12/14 07:56:29;;;;;;;2.10;0.80;;;;;;;4.10;67.73;101217.16;5015878;28;99984;-75
2023/12/14 07:58:55;;;;;;;1.70;1.20;;;;;;;4.10;67.72;101219.91;5001344;28;100471;-75
2023/12/14 08:01:20;;;;;;;2.03;1.40;;;;;;;4.10;67.57;101233.59;5013320;28;97478;-76
2023/12/14 08:03:46;;;;;;;1.53;1.43;;;;;;;4.14;67.81;101232.22;4995814;28;100580;-75
2023/12/14 08:06:11;;;;;;;1.13;1.07;;;;;;;4.15;67.46;101249.38;5013884;28;98485;-75
2023/12/14 08:08:37;;;;;;;3.53;0.90;;;;;;;4.16;67.75;101273.59;5012908;28;96959;-75
2023/12/14 08:11:03;;;;;;;1.00;1.00;;;;;;;4.17;67.52;101252.41;4995590;28;97144;-76
2023/12/14 08:13:29;;;;;;;0.80;0.80;;;;;;;4.20;67.54;101273.44;5012757;28;97358;-75
2023/12/14 08:15:55;;;;;;;1.57;1.27;;;;;;;4.16;67.53;101289.25;4993134;28;100102;-75
2023/12/14 08:18:20;;;;;;;1.40;1.30;;;;;;;4.19;67.56;101286.34;4995086;28;100659;-76
2023/12/14 08:20:45;;;;;;;2.63;1.53;;;;;;;4.21;67.70;101277.69;5013418;28;101547;-76
2023/12/14 08:23:10;;;;;;;1.30;1.23;;;;;;;4.24;67.62;101269.31;5012795;28;96747;-75
2023/12/14 08:25:36;;;;;;;1.80;1.30;;;;;;;4.24;67.34;101265.81;5014806;28;97328;-75
2023/12/14 08:28:01;;;;;;;1.80;1.70;;;;;;;4.24;67.37;101274.81;4998958;28;103210;-75
2023/12/14 08:30:26;;;;;;;1.53;1.30;;;;;;;4.24;67.53;101282.25;5013091;28;102454;-75
2023/12/14 08:32:52;;;;;;;1.60;1.50;;;;;;;4.27;67.67;101281.34;5013860;28;107239;-75
2023/12/14 08:35:17;;;;;;;1.63;1.53;;;;;;;4.28;67.41;101293.81;5015231;28;102517;-75
2023/12/14 08:37:43;;;;;;;1.80;1.70;;;;;;;4.31;67.44;101292.91;5012777;28;112646;-75
2023/12/14 08:40:09;;;;;;;1.93;1.33;;;;;;;4.34;67.48;101302.97;4992193;28;100025;-75
2023/12/14 08:42:35;;;;;;;2.70;1.57;;;;;;;4.34;67.60;101314.66;5012064;28;97228;-74
2023/12/14 08:45:00;;;;;;;1.13;1.03;;;;;;;4.36;67.69;101311.47;5010681;28;98876;-76
2023/12/14 08:47:26;;;;;;;1.53;1.43;;;;;;;4.37;67.30;101321.97;5012089;28;97517;-75
2023/12/14 08:49:51;;;;;;;1.80;1.63;;;;;;;4.40;67.49;101323.81;5011738;28;96752;-75
2023/12/14 08:52:17;;;;;;;1.50;1.40;;;;;;;4.42;67.42;101326.06;4998319;28;96789;-75
2023/12/14 08:54:45;;;;;;;1.43;1.33;;;;;;;4.40;67.19;101332.03;4999434;28;100143;-75
2023/12/14 08:57:11;;;;;;;1.80;1.00;;;;;;;4.41;67.39;101321.81;5014976;28;97297;-75
2023/12/14 08:59:36;;;;;;;1.43;1.33;;;;;;;4.43;67.24;101333.84;5010085;28;97020;-75
2023/12/14 09:02:01;;;;;;;1.30;1.20;;;;;;;4.40;67.64;101334.00;4996426;28;97809;-75
2023/12/14 09:04:27;;;;;;;3.27;1.40;;;;;;;4.42;67.69;101346.03;5010495;28;96866;-75
2023/12/14 09:06:53;;;;;;;1.83;1.73;;;;;;;4.44;67.55;101343.59;5011218;28;97225;-76
2023/12/14 09:09:18;;;;;;;1.43;1.30;;;;;;;4.43;67.20;101342.03;5011596;28;97253;-76
2023/12/14 09:11:44;;;;;;;1.77;1.67;;;;;;;4.44;67.35;101354.53;4998047;28;97278;-75
2023/12/14 09:14:09;;;;;;;1.50;1.27;;;;;;;4.44;67.32;101345.56;5010416;28;98895;-75
2023/12/14 09:16:35;;;;;;;1.30;1.20;;;;;;;4.44;67.35;101334.59;5012150;28;97334;-76
2023/12/14 09:19:00;;;;;;;1.77;1.57;;;;;;;4.46;67.27;101340.38;5014610;28;97100;-75
2023/12/14 09:21:26;;;;;;;1.37;1.27;;;;;;;4.47;67.36;101347.41;4999773;28;97093;-75
2023/12/14 09:23:53;;;;;;;1.30;1.20;;;;;;;4.47;67.28;101364.56;5012760;28;97804;-75
2023/12/14 09:26:19;;;;;;;1.47;1.30;;;;;;;4.50;67.44;101343.72;5012580;28;97243;-75
2023/12/14 09:28:44;;;;;;;2.53;1.60;;;;;;;4.49;67.33;101353.94;5010986;28;97083;-75
2023/12/14 09:31:09;;;;;;;2.20;2.10;;;;;;;4.49;67.10;101364.13;5013832;28;108499;-76
2023/12/14 09:33:35;;;;;;;2.13;1.77;;;;;;;4.52;67.39;101363.97;5012209;28;97763;-75
2023/12/14 09:36:00;;;;;;;7.47;2.23;;;;;;;4.57;67.38;101368.09;5012688;28;96921;-75
2023/12/14 09:38:26;;;;;;;3.60;2.37;;;;;;;4.64;67.55;101376.00;5008652;28;97072;-75
2023/12/14 09:40:51;;;;;;;2.30;1.93;;;;;;;4.64;67.54;101371.28;5012445;28;97388;-76
2023/12/14 09:43:17;;;;;;;1.63;1.53;;;;;;;4.66;67.41;101382.56;5012739;28;97266;-75
2023/12/14 09:45:44;;;;;;;1.90;1.80;;;;;;;4.69;67.45;101394.59;5013766;28;97228;-76
2023/12/14 09:48:11;;;;;;;1.53;1.43;;;;;;;4.75;67.41;101395.50;4995075;28;97700;-75
2023/12/14 09:50:39;;;;;;;2.70;2.40;;;;;;;4.76;67.25;101394.28;5013339;28;97024;-76
2023/12/14 09:53:04;;;;;;;1.77;1.50;;;;;;;4.76;67.35;101395.06;5008767;28;98179;-76
2023/12/14 09:55:31;;;;;;;1.73;1.50;;;;;;;4.75;67.36;101412.75;5009792;28;97274;-75
2023/12/14 09:57:56;;;;;;;1.63;1.53;;;;;;;4.78;67.32;101414.53;5014708;28;100144;-75
2023/12/14 10:00:36;;;;;;;1.30;1.20;;;;;;;4.81;66.98;101407.38;5012889;28;97129;-76
2023/12/14 10:03:33;;;;;;;2.20;1.70;;;;;;;4.77;67.11;101410.28;5016600;28;97367;-75
2023/12/14 10:06:01;;;;;;;1.67;1.47;;;;;;;4.82;67.41;101408.16;4969340;28;97527;-76
2023/12/14 10:08:27;;;;;;;1.60;1.50;;;;;;;4.84;67.41;101417.44;5014355;28;97189;-75
2023/12/14 10:10:55;;;;;;;3.23;1.70;;;;;;;4.89;67.31;101421.56;5016461;28;97156;-76
2023/12/14 10:13:37;;;;;;;1.70;1.60;;;;;;;4.89;66.93;101422.31;5010452;28;98557;-75
2023/12/14 10:16:02;;;;;;;1.97;1.60;;;;;;;4.91;67.20;101421.88;5013540;28;98056;-75
2023/12/14 10:18:29;;;;;;;1.80;1.70;;;;;;;4.92;67.37;101439.81;5016578;28;97158;-76
2023/12/14 10:20:55;;;;;;;1.60;1.30;;;;;;;4.90;67.07;101429.31;5001071;28;96798;-75
2023/12/14 10:23:21;;;;;;;1.50;1.40;;;;;;;4.93;67.22;101427.66;5001381;28;100664;-76
2023/12/14 10:25:46;;;;;;;1.87;1.77;;;;;;;4.95;67.13;101438.91;5001696;28;99692;-75
2023/12/14 10:28:15;;;;;;;5.47;1.63;;;;;;;4.95;67.20;101436.94;5012084;28;96953;-75
2023/12/14 10:30:41;;;;;;;1.90;1.60;;;;;;;4.99;67.29;101440.28;5015759;28;100217;-75
2023/12/14 10:33:07;;;;;;;3.00;2.20;;;;;;;5.00;67.25;101444.53;4996066;28;99626;-75
2023/12/14 10:35:32;;;;;;;2.27;1.90;;;;;;;5.04;67.18;101458.13;5001214;28;100162;-75
2023/12/14 10:38:03;;;;;;;2.83;1.80;;;;;;;5.00;66.90;101455.50;5014070;28;97344;-76
2023/12/14 10:40:28;;;;;;;2.60;2.13;;;;;;;4.98;66.96;101459.91;4997478;28;97341;-75
2023/12/14 10:42:58;;;;;;;4.07;2.17;;;;;;;5.01;67.10;101462.53;5013338;28;99288;-75
2023/12/14 10:45:29;;;;;;;2.57;2.00;;;;;;;4.99;67.10;101478.69;4993851;28;100303;-75
2023/12/14 10:47:56;;;;;;;7.80;2.10;;;;;;;4.99;67.13;101473.19;5016451;28;96731;-75
2023/12/14 10:50:21;;;;;;;4.63;2.10;;;;;;;5.05;67.36;101478.81;4994921;28;97172;-75
2023/12/14 10:52:47;;;;;;;2.17;2.07;;;;;;;5.00;67.12;101482.16;5010913;28;100195;-75
2023/12/14 10:55:24;;;;;;;5.30;2.77;;;;;;;5.01;67.03;101478.22;5014762;28;97679;-75
2023/12/14 10:57:52;;;;;;;3.10;2.80;;;;;;;5.01;67.21;101487.22;5016783;28;97375;-75
2023/12/14 11:00:17;;;;;;;3.10;2.60;;;;;;;5.00;67.37;101491.16;5013312;28;97403;-76
2023/12/14 11:02:46;;;;;;;3.33;2.70;;;;;;;5.02;67.14;101485.97;5015742;28;97368;-75
2023/12/14 11:05:15;;;;;;;3.50;3.03;;;;;;;4.99;66.94;101489.66;5013794;28;97552;-75
2023/12/14 11:07:48;;;;;;;4.10;3.63;;;;;;;4.96;67.21;101492.53;5013305;27;97095;-75
2023/12/14 11:10:14;;;;;;;5.30;3.33;;;;;;;4.94;67.27;101493.00;4992698;28;97356;-75
2023/12/14 11:13:02;;;;;;;3.47;3.00;;;;;;;4.93;67.12;101501.69;5010774;28;97389;-76
2023/12/14 11:15:33;;;;;;;4.40;3.60;;;;;;;4.91;67.27;101499.38;5012803;28;97190;-75
2023/12/14 11:18:08;;;;;;;4.47;3.77;;;;;;;4.90;67.10;101500.59;5005444;28;97365;-76
2023/12/14 11:20:45;;;;;;;3.47;3.17;;;;;;;4.89;67.17;101506.56;5016287;28;97121;-75
2023/12/14 11:23:19;;;;;;;3.27;2.93;;;;;;;4.91;67.01;101504.13;5009010;28;97859;-76
2023/12/14 11:25:48;;;;;;;5.50;3.70;;;;;;;4.92;67.11;101506.41;5000164;28;100623;-75